createdAt,value
2023-03-04T00:02:23.566Z,39.63
2023-03-04T00:04:53.155Z,38.87
2023-03-04T00:07:19.957Z,40.43
2023-03-04T00:09:46.854Z,43.00
2023-03-04T00:12:13.850Z,47.37
2023-03-04T00:14:40.808Z,41.00
2023-03-04T00:17:07.687Z,43.43
2023-03-04T00:19:35.469Z,45.97
2023-03-04T00:22:04.002Z,47.27
2023-03-04T00:24:31.083Z,46.93
2023-03-04T00:26:58.005Z,49.87
2023-03-04T00:29:24.853Z,47.33
2023-03-04T00:31:51.702Z,47.37
2023-03-04T00:34:21.138Z,53.07
2023-03-04T00:36:47.935Z,52.83
2023-03-04T00:39:16.853Z,57.47
2023-03-04T00:41:45.938Z,56.23
2023-03-04T00:44:12.698Z,58.70
2023-03-04T00:46:39.486Z,49.43
2023-03-04T00:49:06.305Z,55.77
2023-03-04T00:51:33.058Z,58.23
2023-03-04T00:54:01.030Z,58.40
2023-03-04T00:56:30.438Z,56.63
2023-03-04T00:58:59.491Z,55.40
2023-03-04T01:01:26.440Z,52.50
2023-03-04T01:03:55.818Z,61.33
2023-03-04T01:06:22.653Z,54.23
2023-03-04T01:08:49.451Z,60.03
2023-03-04T01:11:18.617Z,64.57
2023-03-04T01:13:45.525Z,61.40
2023-03-04T01:16:13.073Z,57.37
2023-03-04T01:18:40.016Z,57.57
2023-03-04T01:21:06.811Z,64.93
2023-03-04T01:23:33.616Z,59.80
2023-03-04T01:26:00.588Z,55.93
2023-03-04T01:28:27.368Z,59.17
2023-03-04T01:30:54.176Z,61.63
2023-03-04T01:33:23.288Z,67.30
2023-03-04T01:35:50.199Z,64.90
2023-03-04T01:38:17.055Z,56.03
2023-03-04T01:40:46.754Z,63.90
2023-03-04T01:43:20.159Z,57.23
2023-03-04T01:45:48.550Z,66.47
2023-03-04T01:48:15.708Z,65.73
2023-03-04T01:50:42.548Z,63.93
2023-03-04T01:53:15.091Z,57.93
2023-03-04T01:55:41.870Z,59.00
2023-03-04T01:58:14.896Z,60.03
2023-03-04T02:00:41.709Z,61.10
2023-03-04T02:03:13.531Z,64.83
2023-03-04T02:05:42.754Z,58.33
2023-03-04T02:08:09.574Z,49.40
2023-03-04T02:10:36.363Z,55.97
2023-03-04T02:13:05.828Z,50.47
2023-03-04T02:15:34.854Z,50.43
2023-03-04T02:18:18.804Z,52.67
2023-03-04T02:20:47.864Z,52.10
2023-03-04T02:23:25.798Z,53.97
2023-03-04T02:26:20.569Z,53.27
2023-03-04T02:28:48.679Z,48.03
2023-03-04T02:31:31.656Z,50.50
2023-03-04T02:34:02.484Z,52.30
2023-03-04T02:36:29.467Z,50.93
2023-03-04T02:38:56.466Z,55.30
2023-03-04T02:41:25.096Z,54.07
2023-03-04T02:43:53.340Z,61.90
2023-03-04T02:46:22.724Z,63.37
2023-03-04T02:48:50.544Z,57.20
2023-03-04T02:51:17.527Z,54.30
2023-03-04T02:53:44.273Z,59.07
2023-03-04T02:56:11.044Z,59.43
2023-03-04T02:58:38.357Z,51.47
2023-03-04T03:01:06.305Z,55.37
2023-03-04T03:03:33.091Z,54.53
2023-03-04T03:06:02.341Z,53.67
2023-03-04T03:08:29.132Z,55.90
2023-03-04T03:10:58.385Z,57.73
2023-03-04T03:13:29.014Z,53.40
2023-03-04T03:15:55.813Z,55.87
2023-03-04T03:18:22.696Z,59.13
2023-03-04T03:20:49.562Z,57.57
2023-03-04T03:23:18.099Z,55.30
2023-03-04T03:25:44.946Z,49.90
2023-03-04T03:28:13.933Z,53.97
2023-03-04T03:30:40.737Z,52.57
2023-03-04T03:33:12.515Z,56.40
2023-03-04T03:35:39.469Z,53.87
2023-03-04T03:38:10.913Z,51.90
2023-03-04T03:40:37.668Z,54.87
2023-03-04T03:43:07.505Z,52.50
2023-03-04T03:45:34.599Z,50.03
2023-03-04T03:48:01.446Z,50.23
2023-03-04T03:50:29.458Z,48.13
2023-03-04T03:52:56.294Z,49.80
2023-03-04T03:55:23.131Z,47.67
2023-03-04T03:57:50.177Z,50.90
2023-03-04T04:00:20.113Z,46.03
2023-03-04T04:02:47.264Z,49.03
2023-03-04T04:05:14.259Z,51.77
2023-03-04T04:07:45.969Z,49.33
2023-03-04T04:10:12.735Z,58.63
2023-03-04T04:12:39.549Z,51.80
2023-03-04T04:15:07.013Z,49.77
2023-03-04T04:17:33.840Z,43.30
2023-03-04T04:20:02.828Z,46.53
2023-03-04T04:22:29.763Z,47.53
2023-03-04T04:24:56.526Z,49.23
2023-03-04T04:27:23.300Z,49.70
2023-03-04T04:29:50.137Z,44.87
2023-03-04T04:32:21.564Z,46.37
2023-03-04T04:34:48.454Z,43.83
2023-03-04T04:37:15.236Z,45.70
2023-03-04T04:39:44.643Z,47.50
2023-03-04T04:42:11.659Z,52.30
2023-03-04T04:44:39.091Z,44.53
2023-03-04T04:47:07.373Z,46.07
2023-03-04T04:49:36.672Z,46.07
2023-03-04T04:52:03.600Z,48.50
2023-03-04T04:54:32.746Z,50.77
2023-03-04T04:56:59.541Z,44.07
2023-03-04T04:59:30.875Z,43.60
2023-03-04T05:01:57.651Z,45.37
2023-03-04T05:04:24.472Z,42.70
2023-03-04T05:06:51.284Z,43.03
2023-03-04T05:09:19.516Z,42.70
2023-03-04T05:11:48.436Z,47.77
2023-03-04T05:14:17.431Z,41.40
2023-03-04T05:16:44.227Z,40.43
2023-03-04T05:19:11.411Z,43.57
2023-03-04T05:21:38.234Z,40.03
2023-03-04T05:24:05.242Z,40.70
2023-03-04T05:26:32.059Z,43.83
2023-03-04T05:28:58.847Z,44.90
2023-03-04T05:31:25.668Z,42.43
2023-03-04T05:33:52.499Z,38.57
2023-03-04T05:36:21.626Z,41.10
2023-03-04T05:38:48.457Z,41.97
2023-03-04T05:41:15.280Z,37.63
2023-03-04T05:43:44.406Z,42.03
2023-03-04T05:46:15.405Z,44.37
2023-03-04T05:48:50.297Z,36.80
2023-03-04T05:51:17.122Z,47.10
2023-03-04T05:53:43.943Z,38.47
2023-03-04T05:56:16.122Z,42.17
2023-03-04T05:58:47.486Z,37.27
2023-03-04T06:01:14.341Z,40.67
2023-03-04T06:03:43.803Z,37.67
2023-03-04T06:06:10.732Z,39.07
2023-03-04T06:08:37.560Z,41.57
2023-03-04T06:11:06.845Z,42.97
2023-03-04T06:13:36.050Z,39.30
2023-03-04T06:16:02.864Z,42.07
2023-03-04T06:18:29.815Z,44.50
2023-03-04T06:20:58.497Z,39.50
2023-03-04T06:23:25.512Z,39.40
2023-03-04T06:25:53.841Z,39.20
2023-03-04T06:28:23.174Z,42.03
2023-03-04T06:30:52.780Z,40.70
2023-03-04T06:33:24.482Z,39.93
2023-03-04T06:35:56.844Z,38.87
2023-03-04T06:38:23.986Z,39.03
2023-03-04T06:40:50.831Z,36.23
2023-03-04T06:43:17.607Z,37.43
2023-03-04T06:45:44.441Z,41.37
2023-03-04T06:48:11.565Z,45.37
2023-03-04T06:50:40.082Z,39.40
2023-03-04T06:53:06.864Z,38.63
2023-03-04T06:55:33.623Z,38.60
2023-03-04T06:58:05.098Z,38.63
2023-03-04T07:00:34.193Z,35.40
2023-03-04T07:03:01.137Z,42.50
2023-03-04T07:05:28.028Z,40.27
2023-03-04T07:07:54.897Z,38.63
2023-03-04T07:10:21.678Z,37.40
2023-03-04T07:12:48.484Z,36.53
2023-03-04T07:15:15.285Z,34.87
2023-03-04T07:17:42.043Z,35.57
2023-03-04T07:20:09.634Z,41.70
2023-03-04T07:22:36.414Z,33.67
2023-03-04T07:25:05.784Z,36.17
2023-03-04T07:27:34.832Z,39.43
2023-03-04T07:30:01.671Z,37.17
2023-03-04T07:32:28.467Z,38.43
2023-03-04T07:34:55.267Z,42.27
2023-03-04T07:37:22.123Z,37.63
2023-03-04T07:39:51.133Z,34.53
2023-03-04T07:42:20.115Z,34.83
2023-03-04T07:44:51.515Z,36.57
2023-03-04T07:47:18.353Z,37.77
2023-03-04T07:49:45.118Z,34.17
2023-03-04T07:52:14.309Z,33.10
2023-03-04T07:54:43.249Z,37.17
2023-03-04T07:57:10.131Z,37.20
2023-03-04T07:59:36.938Z,33.13
2023-03-04T08:02:03.878Z,35.77
2023-03-04T08:04:30.761Z,32.43
2023-03-04T08:06:57.620Z,33.30
2023-03-04T08:09:26.619Z,32.80
2023-03-04T08:11:53.413Z,30.53
2023-03-04T08:14:20.293Z,31.77
2023-03-04T08:16:49.226Z,37.27
2023-03-04T08:19:15.992Z,36.27
2023-03-04T08:21:42.820Z,36.17
2023-03-04T08:24:10.440Z,33.03
2023-03-04T08:26:50.394Z,39.97
2023-03-04T08:29:23.565Z,38.73
2023-03-04T08:31:54.257Z,37.07
2023-03-04T08:34:23.380Z,35.43
2023-03-04T08:36:50.160Z,40.13
2023-03-04T08:39:18.023Z,38.30
2023-03-04T08:41:44.855Z,42.30
2023-03-04T08:44:12.038Z,40.30
2023-03-04T08:46:39.568Z,34.40
2023-03-04T08:49:06.411Z,36.77
2023-03-04T08:51:35.663Z,38.90
2023-03-04T08:54:03.482Z,32.47
2023-03-04T08:56:30.290Z,34.50
2023-03-04T08:58:59.573Z,37.40
2023-03-04T09:01:26.389Z,35.57
2023-03-04T09:03:53.404Z,34.07
2023-03-04T09:06:20.298Z,34.97
2023-03-04T09:08:47.167Z,35.33
2023-03-04T09:11:14.077Z,40.47
2023-03-04T09:13:40.841Z,38.23
2023-03-04T09:16:14.426Z,32.60
2023-03-04T09:18:41.387Z,35.87
2023-03-04T09:21:08.854Z,37.90
2023-03-04T09:23:36.410Z,30.27
2023-03-04T09:26:14.205Z,35.50
2023-03-04T09:28:45.722Z,40.87
2023-03-04T09:31:13.872Z,29.80
2023-03-04T09:33:43.246Z,32.87
2023-03-04T09:36:13.519Z,35.33
2023-03-04T09:38:40.572Z,32.97
2023-03-04T09:41:15.472Z,32.67
2023-03-04T09:43:42.288Z,34.90
2023-03-04T09:46:31.248Z,34.37
2023-03-04T09:48:58.049Z,32.63
2023-03-04T09:52:01.798Z,29.83
2023-03-04T09:54:37.762Z,36.23
2023-03-04T09:57:28.078Z,36.63
2023-03-04T10:00:10.676Z,32.90
2023-03-04T10:03:06.733Z,30.13
2023-03-04T10:05:35.220Z,31.33
2023-03-04T10:08:16.833Z,31.43
2023-03-04T10:10:46.149Z,30.10
2023-03-04T10:13:18.949Z,32.53
2023-03-04T10:15:47.218Z,36.57
2023-03-04T10:18:36.769Z,30.43
2023-03-04T10:21:24.500Z,32.60
2023-03-04T10:23:54.497Z,31.07
2023-03-04T10:26:23.582Z,31.97
2023-03-04T10:28:50.518Z,32.33
2023-03-04T10:31:22.972Z,31.20
2023-03-04T10:33:49.842Z,31.53
2023-03-04T10:36:31.506Z,32.30
2023-03-04T10:39:07.357Z,34.17
2023-03-04T10:41:36.408Z,36.53
2023-03-04T10:44:04.319Z,32.50
2023-03-04T10:46:31.933Z,34.80
2023-03-04T10:49:01.338Z,33.43
2023-03-04T10:51:31.076Z,32.97
2023-03-04T10:54:10.428Z,35.97
2023-03-04T10:56:45.576Z,34.70
2023-03-04T10:59:32.180Z,30.30
2023-03-04T11:02:00.180Z,31.63
2023-03-04T11:04:28.188Z,38.03
2023-03-04T11:06:55.450Z,37.97
2023-03-04T11:09:32.014Z,38.90
2023-03-04T11:12:02.616Z,36.43
2023-03-04T11:14:44.872Z,34.90
2023-03-04T11:17:42.294Z,33.17
2023-03-04T11:20:36.286Z,34.93
2023-03-04T11:23:14.417Z,35.37
2023-03-04T11:25:47.350Z,34.70
2023-03-04T11:28:15.776Z,33.53
2023-03-04T11:30:53.719Z,40.73
2023-03-04T11:33:49.813Z,30.27
2023-03-04T11:36:29.051Z,27.90
2023-03-04T11:38:58.060Z,34.80
2023-03-04T11:41:36.604Z,32.20
2023-03-04T11:44:05.709Z,32.97
2023-03-04T11:46:35.954Z,39.80
2023-03-04T11:49:36.610Z,33.30
2023-03-04T11:52:24.348Z,30.00
2023-03-04T11:55:08.560Z,31.40
2023-03-04T11:58:10.622Z,35.37
2023-03-04T12:00:42.541Z,38.83
2023-03-04T12:03:15.128Z,31.00
2023-03-04T12:06:17.460Z,34.60
2023-03-04T12:09:09.098Z,35.17
2023-03-04T12:12:00.932Z,29.00
2023-03-04T12:15:02.678Z,32.90
2023-03-04T12:18:02.890Z,31.03
2023-03-04T12:20:46.894Z,31.93
2023-03-04T12:23:22.385Z,31.63
2023-03-04T12:26:03.540Z,36.13
2023-03-04T12:28:41.811Z,28.93
2023-03-04T12:31:21.024Z,37.27
2023-03-04T12:34:06.208Z,27.40
2023-03-04T12:36:38.850Z,32.10
2023-03-04T12:39:33.015Z,33.50
2023-03-04T12:42:07.120Z,29.63
2023-03-04T12:44:46.062Z,27.37
2023-03-04T12:47:37.772Z,40.87
2023-03-04T12:50:10.494Z,32.83
2023-03-04T12:52:55.889Z,35.70
2023-03-04T12:55:31.190Z,29.47
2023-03-04T12:58:00.659Z,23.13
2023-03-04T13:00:47.578Z,24.73
2023-03-04T13:03:32.651Z,25.97
2023-03-04T13:06:17.887Z,24.17
2023-03-04T13:09:03.163Z,25.83
2023-03-04T13:11:30.998Z,28.73
2023-03-04T13:14:17.715Z,32.60
2023-03-04T13:16:48.102Z,30.30
2023-03-04T13:19:42.915Z,27.57
2023-03-04T13:22:40.932Z,29.40
2023-03-04T13:25:45.215Z,20.97
2023-03-04T13:28:30.935Z,22.23
2023-03-04T13:30:59.489Z,17.87
2023-03-04T13:33:26.305Z,23.37
2023-03-04T13:36:02.106Z,21.73
2023-03-04T13:38:31.670Z,28.80
2023-03-04T13:41:16.593Z,26.17
2023-03-04T13:43:52.311Z,26.03
2023-03-04T13:46:23.800Z,25.97
2023-03-04T13:48:50.913Z,26.20
2023-03-04T13:51:33.749Z,28.13
2023-03-04T13:54:02.907Z,23.17
2023-03-04T13:56:37.560Z,16.87
2023-03-04T13:59:07.632Z,9.27
2023-03-04T14:01:46.005Z,8.10
2023-03-04T14:04:15.875Z,7.77
2023-03-04T14:06:45.377Z,11.60
2023-03-04T14:09:21.895Z,8.87
2023-03-04T14:11:49.592Z,10.87
2023-03-04T14:14:22.864Z,9.87
2023-03-04T14:16:52.099Z,11.27
2023-03-04T14:19:48.396Z,9.23
2023-03-04T14:22:24.956Z,7.83
2023-03-04T14:25:13.727Z,6.93
2023-03-04T14:27:40.776Z,8.27
2023-03-04T14:30:39.186Z,8.37
2023-03-04T14:33:13.198Z,7.27
2023-03-04T14:35:46.245Z,9.03
2023-03-04T14:38:31.184Z,8.43
2023-03-04T14:40:59.953Z,6.30
2023-03-04T14:43:26.722Z,8.50
2023-03-04T14:45:54.732Z,8.47
2023-03-04T14:48:26.326Z,10.17
2023-03-04T14:50:53.648Z,12.43
2023-03-04T14:53:27.074Z,8.07
2023-03-04T14:56:01.516Z,5.43
2023-03-04T14:58:34.458Z,10.13
2023-03-04T15:01:09.521Z,6.97
2023-03-04T15:03:40.911Z,7.90
2023-03-04T15:06:19.765Z,6.50
2023-03-04T15:08:46.757Z,8.87
2023-03-04T15:11:48.165Z,11.70
2023-03-04T15:14:50.638Z,6.80
2023-03-04T15:17:27.017Z,6.77
2023-03-04T15:20:05.664Z,4.17
2023-03-04T15:22:37.271Z,6.53
2023-03-04T15:25:04.224Z,7.73
2023-03-04T15:27:33.543Z,4.93
2023-03-04T15:30:01.687Z,7.07
2023-03-04T15:32:31.033Z,5.20
2023-03-04T15:34:57.840Z,5.53
2023-03-04T15:37:26.397Z,6.53
2023-03-04T15:39:53.217Z,6.27
2023-03-04T15:42:22.522Z,2.80
2023-03-04T15:44:49.346Z,4.80
2023-03-04T15:47:16.204Z,5.83
2023-03-04T15:49:44.101Z,3.70
2023-03-04T15:52:15.680Z,3.37
2023-03-04T15:54:42.487Z,3.60
2023-03-04T15:57:14.547Z,5.23
2023-03-04T15:59:43.653Z,5.47
2023-03-04T16:02:15.987Z,6.50
2023-03-04T16:04:45.076Z,5.70
2023-03-04T16:07:16.538Z,4.93
2023-03-04T16:09:45.609Z,6.50
2023-03-04T16:12:14.991Z,4.50
2023-03-04T16:14:42.505Z,4.80
2023-03-04T16:17:11.905Z,9.73
2023-03-04T16:19:38.880Z,3.67
2023-03-04T16:22:05.729Z,4.97
2023-03-04T16:24:34.751Z,5.60
2023-03-04T16:27:01.600Z,6.13
2023-03-04T16:29:30.934Z,5.37
2023-03-04T16:31:57.726Z,4.23
2023-03-04T16:34:27.091Z,5.10
2023-03-04T16:36:53.903Z,9.23
2023-03-04T16:39:26.138Z,7.00
2023-03-04T16:41:53.073Z,4.47
2023-03-04T16:44:19.854Z,3.60
2023-03-04T16:46:49.207Z,4.13
2023-03-04T16:49:18.153Z,5.80
2023-03-04T16:51:49.420Z,4.00
2023-03-04T16:54:18.632Z,4.70
2023-03-04T16:56:45.400Z,5.73
2023-03-04T16:59:15.101Z,2.80
2023-03-04T17:01:41.987Z,2.77
2023-03-04T17:04:11.047Z,4.90
2023-03-04T17:06:38.603Z,5.13
2023-03-04T17:09:06.399Z,4.40
2023-03-04T17:11:35.604Z,6.80
2023-03-04T17:14:02.511Z,7.13
2023-03-04T17:16:31.704Z,5.10
2023-03-04T17:18:58.529Z,7.87
2023-03-04T17:21:28.504Z,5.10
2023-03-04T17:23:55.262Z,3.77
2023-03-04T17:26:22.799Z,4.30
2023-03-04T17:28:50.293Z,4.47
2023-03-04T17:31:18.935Z,6.47
2023-03-04T17:33:49.537Z,6.00
2023-03-04T17:36:19.091Z,6.50
2023-03-04T17:38:49.613Z,4.87
2023-03-04T17:41:18.301Z,7.03
2023-03-04T17:43:45.823Z,7.83
2023-03-04T17:46:14.096Z,6.53
2023-03-04T17:48:41.050Z,3.30
2023-03-04T17:51:08.093Z,2.63
2023-03-04T17:53:34.920Z,4.43
2023-03-04T17:56:05.037Z,3.77
2023-03-04T17:58:32.935Z,5.60
2023-03-04T18:01:05.274Z,4.53
2023-03-04T18:03:34.236Z,3.60
2023-03-04T18:06:01.012Z,4.87
2023-03-04T18:08:27.816Z,3.77
2023-03-04T18:10:59.874Z,6.27
2023-03-04T18:13:26.677Z,5.07
2023-03-04T18:15:53.433Z,4.53
2023-03-04T18:18:22.869Z,12.43
2023-03-04T18:20:49.766Z,11.40
2023-03-04T18:23:18.678Z,6.43
2023-03-04T18:25:47.687Z,8.23
2023-03-04T18:28:16.870Z,4.73
2023-03-04T18:30:49.229Z,4.73
2023-03-04T18:33:16.068Z,5.03
2023-03-04T18:35:42.944Z,4.50
2023-03-04T18:38:09.785Z,3.50
2023-03-04T18:40:39.776Z,7.93
2023-03-04T18:43:08.981Z,4.77
2023-03-04T18:45:35.861Z,6.40
2023-03-04T18:48:02.720Z,6.23
2023-03-04T18:50:33.917Z,6.90
2023-03-04T18:53:03.014Z,7.63
2023-03-04T18:55:30.614Z,6.20
2023-03-04T18:58:01.451Z,6.63
2023-03-04T19:00:31.306Z,7.33
2023-03-04T19:03:11.822Z,7.37
2023-03-04T19:05:39.221Z,5.33
2023-03-04T19:08:06.851Z,7.17
2023-03-04T19:10:35.797Z,4.33
2023-03-04T19:13:07.777Z,4.77
2023-03-04T19:15:34.739Z,8.67
2023-03-04T19:18:01.559Z,4.47
2023-03-04T19:20:30.615Z,6.50
2023-03-04T19:22:57.466Z,7.87
2023-03-04T19:25:26.520Z,8.23
2023-03-04T19:27:55.363Z,7.53
2023-03-04T19:30:22.274Z,4.57
2023-03-04T19:32:49.230Z,9.33
2023-03-04T19:35:16.806Z,3.17
2023-03-04T19:37:45.830Z,6.67
2023-03-04T19:40:12.877Z,6.20
2023-03-04T19:42:39.766Z,4.53
2023-03-04T19:45:10.180Z,5.80
2023-03-04T19:47:40.228Z,3.03
2023-03-04T19:50:08.030Z,8.57
2023-03-04T19:52:34.869Z,6.07
2023-03-04T19:55:01.817Z,9.00
2023-03-04T19:57:28.673Z,9.17
2023-03-04T19:59:55.449Z,6.70
2023-03-04T20:02:26.655Z,5.97
2023-03-04T20:04:53.478Z,9.50
2023-03-04T20:07:22.852Z,7.03
2023-03-04T20:09:49.707Z,6.83
2023-03-04T20:12:16.547Z,8.97
2023-03-04T20:14:43.601Z,8.37
2023-03-04T20:17:10.383Z,10.90
2023-03-04T20:19:37.423Z,8.50
2023-03-04T20:22:05.712Z,9.03
2023-03-04T20:24:32.647Z,9.87
2023-03-04T20:26:59.561Z,11.07
2023-03-04T20:29:28.582Z,26.03
2023-03-04T20:31:55.392Z,12.97
2023-03-04T20:34:22.843Z,6.90
2023-03-04T20:36:52.035Z,9.03
2023-03-04T20:39:28.679Z,11.83
2023-03-04T20:42:01.874Z,11.77
2023-03-04T20:44:31.582Z,9.70
2023-03-04T20:46:58.486Z,11.70
2023-03-04T20:49:26.700Z,9.50
2023-03-04T20:51:55.875Z,7.80
2023-03-04T20:54:22.766Z,9.40
2023-03-04T20:56:52.264Z,7.80
2023-03-04T20:59:21.603Z,9.13
2023-03-04T21:01:48.512Z,13.57
2023-03-04T21:04:18.171Z,9.70
2023-03-04T21:06:45.241Z,11.43
2023-03-04T21:09:16.187Z,8.67
2023-03-04T21:11:45.699Z,11.10
2023-03-04T21:14:12.486Z,9.17
2023-03-04T21:16:39.273Z,8.70
2023-03-04T21:19:08.253Z,14.20
2023-03-04T21:21:37.419Z,8.20
2023-03-04T21:24:04.361Z,8.70
2023-03-04T21:26:31.226Z,9.57
2023-03-04T21:28:57.990Z,10.87
2023-03-04T21:31:29.000Z,8.37
2023-03-04T21:33:56.075Z,6.83
2023-03-04T21:36:23.386Z,12.40
2023-03-04T21:38:50.299Z,9.10
2023-03-04T21:41:18.144Z,9.83
2023-03-04T21:43:45.063Z,12.03
2023-03-04T21:46:12.600Z,7.17
2023-03-04T21:48:43.359Z,5.63
2023-03-04T21:51:14.266Z,7.07
2023-03-04T21:53:41.086Z,9.00
2023-03-04T21:56:10.369Z,13.13
2023-03-04T21:58:41.859Z,10.07
2023-03-04T22:01:15.415Z,8.90
2023-03-04T22:03:42.264Z,7.90
2023-03-04T22:06:10.024Z,7.30
2023-03-04T22:08:39.093Z,8.23
2023-03-04T22:11:06.992Z,7.00
2023-03-04T22:13:36.029Z,6.60
2023-03-04T22:16:02.910Z,12.07
2023-03-04T22:18:29.908Z,7.27
2023-03-04T22:21:10.099Z,7.87
2023-03-04T22:23:39.528Z,7.40
2023-03-04T22:26:07.287Z,9.50
2023-03-04T22:28:36.605Z,9.87
2023-03-04T22:31:03.612Z,6.13
2023-03-04T22:33:32.814Z,7.27
2023-03-04T22:36:02.361Z,7.53
2023-03-04T22:38:31.697Z,7.43
2023-03-04T22:40:58.712Z,10.43
2023-03-04T22:43:27.970Z,9.60
2023-03-04T22:45:54.760Z,7.47
2023-03-04T22:48:24.072Z,10.27
2023-03-04T22:50:50.888Z,6.93
2023-03-04T22:53:17.679Z,8.43
2023-03-04T22:55:46.561Z,9.90
2023-03-04T22:58:13.341Z,6.10
2023-03-04T23:00:40.203Z,9.10
2023-03-04T23:03:10.289Z,12.73
2023-03-04T23:05:37.111Z,15.73
2023-03-04T23:08:06.147Z,10.23
2023-03-04T23:10:35.037Z,8.50
2023-03-04T23:13:01.883Z,15.17
2023-03-04T23:15:30.780Z,10.67
2023-03-04T23:17:57.613Z,16.93
2023-03-04T23:20:26.801Z,15.10
2023-03-04T23:22:53.571Z,16.70
2023-03-04T23:25:22.567Z,16.83
2023-03-04T23:27:54.023Z,18.43
2023-03-04T23:30:20.800Z,19.63
2023-03-04T23:32:47.560Z,22.13
2023-03-04T23:35:14.369Z,17.80
2023-03-04T23:37:43.330Z,21.17
2023-03-04T23:40:11.025Z,21.20
2023-03-04T23:42:40.926Z,21.50
2023-03-04T23:45:08.213Z,22.83
2023-03-04T23:47:37.156Z,29.23
2023-03-04T23:50:04.188Z,27.73
2023-03-04T23:52:31.069Z,26.53
2023-03-04T23:54:57.987Z,27.03
2023-03-04T23:57:26.970Z,28.30
2023-03-04T23:59:53.768Z,25.80
